createdAt,value
2022-08-08T00:00:50.385Z,1004.07
2022-08-08T00:00:52.784Z,1004.07
2022-08-08T00:01:11.338Z,1004.10
2022-08-08T00:02:32.864Z,1004.10
2022-08-08T00:03:19.906Z,1004.07
2022-08-08T00:04:11.277Z,1004.09
2022-08-08T00:05:11.210Z,1004.12
2022-08-08T00:06:10.210Z,1004.08
2022-08-08T00:07:12.966Z,1004.09
2022-08-08T00:08:10.180Z,1004.16
2022-08-08T00:09:12.156Z,1004.06
2022-08-08T00:10:11.161Z,1004.09
2022-08-08T00:11:13.092Z,1004.09
2022-08-08T00:12:10.652Z,1004.05
2022-08-08T00:13:10.537Z,1004.11
2022-08-08T00:14:15.912Z,1004.05
2022-08-08T00:15:13.157Z,1004.12
2022-08-08T00:16:11.090Z,1004.10
2022-08-08T00:17:22.929Z,1004.13
2022-08-08T00:18:11.090Z,1004.08
2022-08-08T00:19:10.052Z,1004.11
2022-08-08T00:20:14.467Z,1004.11
2022-08-08T00:21:10.030Z,1004.08
2022-08-08T00:22:11.022Z,1004.10
2022-08-08T00:23:10.010Z,1004.14
2022-08-08T00:24:10.012Z,1004.11
2022-08-08T00:25:09.991Z,1004.10
2022-08-08T00:26:12.974Z,1004.06
2022-08-08T00:27:09.961Z,1004.17
2022-08-08T00:28:34.210Z,1004.12
2022-08-08T00:29:10.960Z,1004.12
2022-08-08T00:30:11.280Z,1004.15
2022-08-08T00:32:20.678Z,1004.10
2022-08-08T00:32:28.532Z,1004.19
2022-08-08T00:33:10.891Z,1004.16
2022-08-08T00:34:18.567Z,1004.15
2022-08-08T00:35:18.643Z,1004.13
2022-08-08T00:36:14.856Z,1004.13
2022-08-08T00:37:16.301Z,1004.13
2022-08-08T00:38:16.717Z,1004.13
2022-08-08T00:41:06.451Z,1004.14
2022-08-08T00:41:12.008Z,1004.12
2022-08-08T00:41:14.762Z,1004.20
2022-08-08T00:42:19.840Z,1004.13
2022-08-08T00:43:18.567Z,1004.15
2022-08-08T00:44:10.772Z,1004.12
2022-08-08T00:45:21.453Z,1004.15
2022-08-08T00:46:16.150Z,1004.18
2022-08-08T00:47:19.470Z,1004.17
2022-08-08T00:48:30.306Z,1004.19
2022-08-08T00:49:22.160Z,1004.21
2022-08-08T00:50:10.702Z,1004.19
2022-08-08T00:51:09.903Z,1004.15
2022-08-08T00:52:20.096Z,1004.15
2022-08-08T00:53:15.644Z,1004.12
2022-08-08T00:54:15.353Z,1004.17
2022-08-08T00:55:10.641Z,1004.12
2022-08-08T00:56:11.498Z,1004.16
2022-08-08T00:57:12.771Z,1004.11
2022-08-08T00:58:13.688Z,1004.16
2022-08-08T00:59:09.600Z,1004.13
2022-08-08T01:00:09.587Z,1004.09
2022-08-08T01:01:09.598Z,1004.09
2022-08-08T01:03:15.358Z,1004.11
2022-08-08T01:03:59.402Z,1004.10
2022-08-08T01:04:11.243Z,1004.14
2022-08-08T01:05:09.524Z,1004.17
2022-08-08T01:06:10.851Z,1004.18
2022-08-08T01:07:09.504Z,1004.19
2022-08-08T01:08:09.493Z,1004.26
2022-08-08T01:09:35.874Z,1004.19
2022-08-08T01:10:10.471Z,1004.27
2022-08-08T01:11:09.457Z,1004.28
2022-08-08T01:12:09.443Z,1004.24
2022-08-08T01:13:09.435Z,1004.25
2022-08-08T01:14:13.643Z,1004.26
2022-08-08T01:15:10.413Z,1004.25
2022-08-08T01:16:10.404Z,1004.22
2022-08-08T01:17:10.387Z,1004.24
2022-08-08T01:18:19.712Z,1004.16
2022-08-08T01:19:13.915Z,1004.22
2022-08-08T01:20:13.179Z,1004.21
2022-08-08T01:21:09.344Z,1004.14
2022-08-08T01:22:13.380Z,1004.18
2022-08-08T01:24:02.363Z,1004.17
2022-08-08T01:24:13.826Z,1004.17
2022-08-08T01:25:14.471Z,1004.16
2022-08-08T01:26:11.386Z,1004.20
2022-08-08T01:27:10.833Z,1004.22
2022-08-08T01:28:10.265Z,1004.15
2022-08-08T01:29:10.254Z,1004.17
2022-08-08T01:30:09.245Z,1004.18
2022-08-08T01:31:25.808Z,1004.19
2022-08-08T01:32:17.059Z,1004.20
2022-08-08T01:33:23.772Z,1004.15
2022-08-08T01:34:10.195Z,1004.18
2022-08-08T01:35:11.086Z,1004.18
2022-08-08T01:36:09.174Z,1004.21
2022-08-08T01:37:13.655Z,1004.22
2022-08-08T01:38:09.172Z,1004.23
2022-08-08T01:39:09.134Z,1004.23
2022-08-08T01:40:14.812Z,1004.21
2022-08-08T01:41:11.522Z,1004.23
2022-08-08T01:42:10.115Z,1004.22
2022-08-08T01:43:09.095Z,1004.17
2022-08-08T01:44:09.095Z,1004.25
2022-08-08T01:45:09.901Z,1004.23
2022-08-08T01:46:09.077Z,1004.22
2022-08-08T01:48:13.847Z,1004.19
2022-08-08T01:48:23.806Z,1004.24
2022-08-08T01:49:10.822Z,1004.26
2022-08-08T01:50:09.017Z,1004.24
2022-08-08T01:51:30.475Z,1004.26
2022-08-08T01:52:53.119Z,1004.30
2022-08-08T01:55:16.260Z,1004.25
2022-08-08T01:55:16.959Z,1004.28
2022-08-08T01:55:45.198Z,1004.26
2022-08-08T01:56:30.558Z,1004.24
2022-08-08T01:57:10.733Z,1004.27
2022-08-08T01:58:11.580Z,1004.27
2022-08-08T01:59:08.907Z,1004.31
2022-08-08T02:00:08.907Z,1004.24
2022-08-08T02:01:15.780Z,1004.24
2022-08-08T02:02:09.904Z,1004.32
2022-08-08T02:03:57.445Z,1004.25
2022-08-08T02:04:09.856Z,1004.22
2022-08-08T02:05:08.837Z,1004.30
2022-08-08T02:06:08.834Z,1004.27
2022-08-08T02:07:09.866Z,1004.27
2022-08-08T02:08:08.807Z,1004.32
2022-08-08T02:09:15.937Z,1004.31
2022-08-08T02:10:11.934Z,1004.30
2022-08-08T02:11:23.012Z,1004.32
2022-08-08T02:12:12.494Z,1004.32
2022-08-08T02:13:08.777Z,1004.32
2022-08-08T02:14:09.772Z,1004.32
2022-08-08T02:15:12.306Z,1004.28
2022-08-08T02:16:08.719Z,1004.28
2022-08-08T02:17:10.608Z,1004.31
2022-08-08T02:18:10.311Z,1004.29
2022-08-08T02:19:26.793Z,1004.32
2022-08-08T02:20:15.981Z,1004.31
2022-08-08T02:21:13.257Z,1004.30
2022-08-08T02:22:08.650Z,1004.37
2022-08-08T02:23:08.637Z,1004.35
2022-08-08T02:24:09.647Z,1004.32
2022-08-08T02:25:11.801Z,1004.32
2022-08-08T02:26:10.283Z,1004.29
2022-08-08T02:27:09.173Z,1004.30
2022-08-08T02:28:08.578Z,1004.33
2022-08-08T02:29:08.566Z,1004.31
2022-08-08T02:30:20.811Z,1004.24
2022-08-08T02:31:43.153Z,1004.31
2022-08-08T02:32:09.558Z,1004.31
2022-08-08T02:33:09.518Z,1004.25
2022-08-08T02:34:09.718Z,1004.20
2022-08-08T02:35:10.826Z,1004.20
2022-08-08T02:36:08.508Z,1004.20
2022-08-08T02:37:09.797Z,1004.27
2022-08-08T02:38:09.311Z,1004.19
2022-08-08T02:39:42.402Z,1004.28
2022-08-08T02:40:09.508Z,1004.27
2022-08-08T02:41:57.987Z,1004.32
2022-08-08T02:42:10.665Z,1004.24
2022-08-08T02:44:36.884Z,1004.23
2022-08-08T02:44:38.863Z,1004.27
2022-08-08T02:45:09.661Z,1004.23
2022-08-08T02:46:09.391Z,1004.26
2022-08-08T02:47:08.360Z,1004.23
2022-08-08T02:48:09.029Z,1004.22
2022-08-08T02:49:08.339Z,1004.19
2022-08-08T02:50:17.641Z,1004.14
2022-08-08T02:51:11.909Z,1004.22
2022-08-08T02:52:32.618Z,1004.24
2022-08-08T02:53:09.302Z,1004.22
2022-08-08T02:54:08.281Z,1004.28
2022-08-08T02:55:10.497Z,1004.22
2022-08-08T02:56:09.258Z,1004.23
2022-08-08T02:57:12.057Z,1004.20
2022-08-08T02:58:08.237Z,1004.23
2022-08-08T02:59:25.843Z,1004.22
2022-08-08T03:00:15.860Z,1004.20
2022-08-08T03:01:14.875Z,1004.24
2022-08-08T03:02:09.237Z,1004.26
2022-08-08T03:03:09.184Z,1004.23
2022-08-08T03:05:03.297Z,1004.22
2022-08-08T03:05:10.755Z,1004.24
2022-08-08T03:06:08.139Z,1004.26
2022-08-08T03:07:08.161Z,1004.22
2022-08-08T03:08:09.138Z,1004.22
2022-08-08T03:09:08.111Z,1004.23
2022-08-08T03:10:08.099Z,1004.19
2022-08-08T03:11:13.885Z,1004.23
2022-08-08T03:12:13.986Z,1004.22
2022-08-08T03:15:53.487Z,1004.23
2022-08-08T03:15:57.397Z,1004.20
2022-08-08T03:16:02.090Z,1004.26
2022-08-08T03:16:09.271Z,1004.23
2022-08-08T03:17:08.558Z,1004.17
2022-08-08T03:18:08.011Z,1004.24
2022-08-08T03:19:08.010Z,1004.25
2022-08-08T03:20:10.487Z,1004.29
2022-08-08T03:21:09.596Z,1004.26
2022-08-08T03:22:38.942Z,1004.31
2022-08-08T03:23:08.959Z,1004.27
2022-08-08T03:24:08.961Z,1004.29
2022-08-08T03:25:14.454Z,1004.25
2022-08-08T03:26:08.912Z,1004.31
2022-08-08T03:27:08.091Z,1004.34
2022-08-08T03:28:07.892Z,1004.26
2022-08-08T03:29:15.029Z,1004.27
2022-08-08T03:30:08.891Z,1004.25
2022-08-08T03:31:24.975Z,1004.33
2022-08-08T03:32:08.893Z,1004.34
2022-08-08T03:33:56.915Z,1004.24
2022-08-08T03:34:08.830Z,1004.29
2022-08-08T03:35:09.438Z,1004.30
2022-08-08T03:36:10.358Z,1004.27
2022-08-08T03:37:20.222Z,1004.30
2022-08-08T03:38:54.276Z,1004.27
2022-08-08T03:39:14.856Z,1004.23
2022-08-08T03:40:10.654Z,1004.28
2022-08-08T03:42:11.550Z,1004.32
2022-08-08T03:42:27.023Z,1004.35
2022-08-08T03:43:17.947Z,1004.39
2022-08-08T03:44:08.711Z,1004.29
2022-08-08T03:46:03.143Z,1004.37
2022-08-08T03:46:09.068Z,1004.35
2022-08-08T03:47:14.177Z,1004.36
2022-08-08T03:48:08.661Z,1004.37
2022-08-08T03:49:30.853Z,1004.33
2022-08-08T03:50:08.652Z,1004.31
2022-08-08T03:51:07.632Z,1004.36
2022-08-08T03:52:07.652Z,1004.35
2022-08-08T03:53:08.612Z,1004.29
2022-08-08T03:54:07.592Z,1004.38
2022-08-08T03:55:10.446Z,1004.33
2022-08-08T03:56:09.570Z,1004.39
2022-08-08T03:58:30.839Z,1004.42
2022-08-08T03:58:33.454Z,1004.47
2022-08-08T03:59:08.542Z,1004.40
2022-08-08T04:00:11.816Z,1004.43
2022-08-08T04:01:24.521Z,1004.41
2022-08-08T04:02:32.628Z,1004.44
2022-08-08T04:03:11.143Z,1004.43
2022-08-08T04:04:07.545Z,1004.47
2022-08-08T04:05:10.223Z,1004.47
2022-08-08T04:06:07.462Z,1004.44
2022-08-08T04:07:07.453Z,1004.45
2022-08-08T04:08:07.473Z,1004.40
2022-08-08T04:09:11.255Z,1004.42
2022-08-08T04:10:07.412Z,1004.48
2022-08-08T04:11:11.043Z,1004.41
2022-08-08T04:12:08.382Z,1004.44
2022-08-08T04:13:17.383Z,1004.43
2022-08-08T04:14:35.454Z,1004.45
2022-08-08T04:15:08.376Z,1004.43
2022-08-08T04:16:07.343Z,1004.43
2022-08-08T04:17:22.239Z,1004.46
2022-08-08T04:18:16.434Z,1004.51
2022-08-08T04:19:23.485Z,1004.50
2022-08-08T04:20:08.482Z,1004.53
2022-08-08T04:21:07.292Z,1004.50
2022-08-08T04:22:07.273Z,1004.59
2022-08-08T04:23:07.834Z,1004.63
2022-08-08T04:24:19.480Z,1004.59
2022-08-08T04:25:08.272Z,1004.59
2022-08-08T04:26:09.368Z,1004.57
2022-08-08T04:27:10.345Z,1004.57
2022-08-08T04:28:35.266Z,1004.60
2022-08-08T04:29:08.637Z,1004.59
2022-08-08T04:30:18.194Z,1004.60
2022-08-08T04:31:09.352Z,1004.63
2022-08-08T04:32:07.482Z,1004.61
2022-08-08T04:33:07.938Z,1004.55
2022-08-08T04:34:07.137Z,1004.58
2022-08-08T04:35:07.125Z,1004.57
2022-08-08T04:36:08.143Z,1004.58
2022-08-08T04:37:07.104Z,1004.58
2022-08-08T04:38:09.592Z,1004.57
2022-08-08T04:40:06.066Z,1004.63
2022-08-08T04:40:12.110Z,1004.60
2022-08-08T04:41:07.521Z,1004.60
2022-08-08T04:42:07.066Z,1004.61
2022-08-08T04:43:08.882Z,1004.64
2022-08-08T04:44:07.023Z,1004.60
2022-08-08T04:45:07.014Z,1004.63
2022-08-08T04:46:07.005Z,1004.65
2022-08-08T04:47:06.999Z,1004.65
2022-08-08T04:48:08.185Z,1004.65
2022-08-08T04:49:06.966Z,1004.67
2022-08-08T04:50:06.960Z,1004.68
2022-08-08T04:51:07.945Z,1004.62
2022-08-08T04:52:06.935Z,1004.69
2022-08-08T04:53:13.917Z,1004.76
2022-08-08T04:54:39.680Z,1004.76
2022-08-08T04:55:07.905Z,1004.74
2022-08-08T04:56:06.887Z,1004.76
2022-08-08T04:57:06.879Z,1004.78
2022-08-08T04:58:11.060Z,1004.78
2022-08-08T04:59:07.854Z,1004.77
2022-08-08T05:00:06.856Z,1004.79
2022-08-08T05:01:10.968Z,1004.78
2022-08-08T05:02:06.860Z,1004.84
2022-08-08T05:03:06.819Z,1004.81
2022-08-08T05:04:12.678Z,1004.76
2022-08-08T05:05:07.807Z,1004.84
2022-08-08T05:06:12.790Z,1004.84
2022-08-08T05:07:07.766Z,1004.88
2022-08-08T05:08:06.747Z,1004.87
2022-08-08T05:09:07.736Z,1004.84
2022-08-08T05:10:06.772Z,1004.88
2022-08-08T05:11:06.745Z,1004.85
2022-08-08T05:12:06.705Z,1004.89
2022-08-08T05:13:17.494Z,1004.84
2022-08-08T05:14:07.677Z,1004.88
2022-08-08T05:15:06.667Z,1004.91
2022-08-08T05:16:55.000Z,1004.87
2022-08-08T05:17:08.713Z,1004.85
2022-08-08T05:18:06.637Z,1004.89
2022-08-08T05:19:06.666Z,1004.91
2022-08-08T05:20:13.202Z,1004.90
2022-08-08T05:21:07.609Z,1004.85
2022-08-08T05:22:06.820Z,1004.88
2022-08-08T05:23:06.606Z,1004.89
2022-08-08T05:24:08.785Z,1004.96
2022-08-08T05:25:06.557Z,1004.95
2022-08-08T05:26:06.591Z,1004.92
2022-08-08T05:27:06.665Z,1004.96
2022-08-08T05:28:06.528Z,1004.94
2022-08-08T05:29:06.653Z,1004.94
2022-08-08T05:30:06.501Z,1004.96
2022-08-08T05:31:19.424Z,1004.97
2022-08-08T05:32:07.956Z,1005.03
2022-08-08T05:33:06.568Z,1004.98
2022-08-08T05:34:06.476Z,1004.96
2022-08-08T05:35:06.467Z,1004.99
2022-08-08T05:36:06.504Z,1004.96
2022-08-08T05:37:15.938Z,1004.94
2022-08-08T05:38:30.569Z,1004.98
2022-08-08T05:39:07.418Z,1004.96
2022-08-08T05:40:06.396Z,1004.97
2022-08-08T05:41:06.377Z,1004.95
2022-08-08T05:42:06.360Z,1004.97
2022-08-08T05:43:17.306Z,1005.05
2022-08-08T05:44:07.340Z,1005.04
2022-08-08T05:45:24.373Z,1005.03
2022-08-08T05:46:07.861Z,1005.05
2022-08-08T05:47:06.309Z,1005.07
2022-08-08T05:48:06.299Z,1005.04
2022-08-08T05:49:11.028Z,1005.07
2022-08-08T05:50:07.281Z,1005.07
2022-08-08T05:51:14.615Z,1005.01
2022-08-08T05:52:07.241Z,1005.01
2022-08-08T05:53:54.015Z,1004.99
2022-08-08T05:54:28.138Z,1005.02
2022-08-08T05:55:09.924Z,1004.97
2022-08-08T05:56:09.492Z,1005.05
2022-08-08T05:57:07.190Z,1005.03
2022-08-08T05:58:17.658Z,1005.06
2022-08-08T05:59:12.729Z,1005.04
2022-08-08T06:00:25.357Z,1005.08
2022-08-08T06:01:07.162Z,1005.09
2022-08-08T06:02:06.131Z,1005.05
2022-08-08T06:03:06.181Z,1005.05
2022-08-08T06:04:13.583Z,1005.05
2022-08-08T06:05:32.796Z,1005.12
2022-08-08T06:06:07.083Z,1005.11
2022-08-08T06:07:06.108Z,1005.09
2022-08-08T06:08:10.157Z,1005.18
2022-08-08T06:10:00.666Z,1005.19
2022-08-08T06:10:07.040Z,1005.15
2022-08-08T06:11:06.032Z,1005.28
2022-08-08T06:12:06.023Z,1005.21
2022-08-08T06:13:06.021Z,1005.22
2022-08-08T06:14:06.002Z,1005.24
2022-08-08T06:15:06.329Z,1005.25
2022-08-08T06:16:06.638Z,1005.25
2022-08-08T06:17:05.963Z,1005.30
2022-08-08T06:18:20.521Z,1005.32
2022-08-08T06:19:07.358Z,1005.35
2022-08-08T06:20:05.924Z,1005.32
2022-08-08T06:21:27.871Z,1005.40
2022-08-08T06:22:32.331Z,1005.37
2022-08-08T06:23:06.913Z,1005.32
2022-08-08T06:24:14.015Z,1005.40
2022-08-08T06:25:06.874Z,1005.44
2022-08-08T06:26:43.544Z,1005.37
2022-08-08T06:27:06.857Z,1005.42
2022-08-08T06:28:05.836Z,1005.42
2022-08-08T06:29:26.211Z,1005.43
2022-08-08T06:30:07.323Z,1005.53
2022-08-08T06:31:09.572Z,1005.48
2022-08-08T06:32:09.903Z,1005.55
2022-08-08T06:33:09.341Z,1005.52
2022-08-08T06:34:25.706Z,1005.50
2022-08-08T06:35:11.903Z,1005.55
2022-08-08T06:36:09.984Z,1005.52
2022-08-08T06:37:24.798Z,1005.53
2022-08-08T06:38:14.231Z,1005.44
2022-08-08T06:39:07.017Z,1005.50
2022-08-08T06:40:05.741Z,1005.52
2022-08-08T06:41:05.803Z,1005.51
2022-08-08T06:42:05.689Z,1005.61
2022-08-08T06:43:05.677Z,1005.58
2022-08-08T06:44:05.669Z,1005.55
2022-08-08T06:45:06.649Z,1005.55
2022-08-08T06:46:08.654Z,1005.54
2022-08-08T06:47:05.629Z,1005.63
2022-08-08T06:48:05.655Z,1005.56
2022-08-08T06:49:05.787Z,1005.52
2022-08-08T06:50:06.592Z,1005.59
2022-08-08T06:51:07.365Z,1005.61
2022-08-08T06:52:05.601Z,1005.57
2022-08-08T06:53:10.035Z,1005.60
2022-08-08T06:54:06.542Z,1005.58
2022-08-08T06:55:05.598Z,1005.55
2022-08-08T06:56:05.523Z,1005.66
2022-08-08T06:57:05.523Z,1005.64
2022-08-08T06:58:05.975Z,1005.68
2022-08-08T06:59:12.034Z,1005.56
2022-08-08T07:00:11.342Z,1005.65
2022-08-08T07:01:24.542Z,1005.66
2022-08-08T07:02:27.295Z,1005.66
2022-08-08T07:03:06.496Z,1005.64
2022-08-08T07:04:38.732Z,1005.66
2022-08-08T07:05:06.450Z,1005.69
2022-08-08T07:06:06.426Z,1005.67
2022-08-08T07:07:10.353Z,1005.75
2022-08-08T07:08:06.406Z,1005.73
2022-08-08T07:09:05.406Z,1005.69
2022-08-08T07:10:08.280Z,1005.71
2022-08-08T07:11:05.366Z,1005.68
2022-08-08T07:12:05.347Z,1005.68
2022-08-08T07:13:05.345Z,1005.66
2022-08-08T07:14:05.327Z,1005.73
2022-08-08T07:15:05.482Z,1005.74
2022-08-08T07:16:10.527Z,1005.74
2022-08-08T07:17:09.282Z,1005.72
2022-08-08T07:18:36.476Z,1005.79
2022-08-08T07:19:06.285Z,1005.76
2022-08-08T07:20:05.268Z,1005.72
2022-08-08T07:21:05.301Z,1005.78
2022-08-08T07:22:18.451Z,1005.83
2022-08-08T07:23:06.231Z,1005.88
2022-08-08T07:24:05.232Z,1005.83
2022-08-08T07:25:06.731Z,1005.84
2022-08-08T07:26:05.212Z,1005.80
2022-08-08T07:27:05.771Z,1005.85
2022-08-08T07:28:07.912Z,1005.90
2022-08-08T07:29:05.761Z,1005.83
2022-08-08T07:30:10.008Z,1005.84
2022-08-08T07:31:06.162Z,1005.90
2022-08-08T07:32:05.161Z,1005.81
2022-08-08T07:33:05.133Z,1005.84
2022-08-08T07:34:08.724Z,1005.85
2022-08-08T07:35:06.142Z,1005.89
2022-08-08T07:36:05.104Z,1005.87
2022-08-08T07:37:13.439Z,1005.91
2022-08-08T07:38:10.419Z,1005.86
2022-08-08T07:39:06.102Z,1005.87
2022-08-08T07:40:05.153Z,1005.79
2022-08-08T07:41:05.188Z,1005.88
2022-08-08T07:42:05.508Z,1005.91
2022-08-08T07:43:08.878Z,1005.90
2022-08-08T07:44:33.440Z,1005.87
2022-08-08T07:45:05.997Z,1005.88
2022-08-08T07:46:23.503Z,1005.91
2022-08-08T07:47:05.978Z,1005.94
2022-08-08T07:48:05.246Z,1005.95
2022-08-08T07:49:04.982Z,1006.00
2022-08-08T07:50:04.979Z,1005.91
2022-08-08T07:51:04.939Z,1005.97
2022-08-08T07:52:04.923Z,1005.97
2022-08-08T07:53:04.918Z,1005.94
2022-08-08T07:54:04.900Z,1006.00
2022-08-08T07:55:04.890Z,1006.05
2022-08-08T07:56:04.908Z,1006.01
2022-08-08T07:57:08.949Z,1006.07
2022-08-08T07:58:05.864Z,1006.03
2022-08-08T07:59:06.030Z,1006.04
2022-08-08T08:00:04.841Z,1006.10
2022-08-08T08:01:05.912Z,1006.05
2022-08-08T08:02:37.035Z,1006.03
2022-08-08T08:03:07.116Z,1006.03
2022-08-08T08:04:04.834Z,1006.06
2022-08-08T08:05:04.784Z,1006.06
2022-08-08T08:06:05.777Z,1006.12
2022-08-08T08:07:04.784Z,1006.12
2022-08-08T08:08:04.763Z,1006.12
2022-08-08T08:09:05.046Z,1006.05
2022-08-08T08:10:05.133Z,1006.16
2022-08-08T08:11:04.725Z,1006.16
2022-08-08T08:12:04.715Z,1006.13
2022-08-08T08:13:04.716Z,1006.18
2022-08-08T08:14:07.670Z,1006.14
2022-08-08T08:15:05.112Z,1006.25
2022-08-08T08:16:04.669Z,1006.25
2022-08-08T08:17:04.666Z,1006.19
2022-08-08T08:18:04.675Z,1006.22
2022-08-08T08:19:04.638Z,1006.19
2022-08-08T08:20:04.635Z,1006.17
2022-08-08T08:21:04.619Z,1006.17
2022-08-08T08:22:07.817Z,1006.20
2022-08-08T08:23:04.599Z,1006.22
2022-08-08T08:24:04.618Z,1006.18
2022-08-08T08:25:07.433Z,1006.16
2022-08-08T08:26:04.579Z,1006.26
2022-08-08T08:27:04.566Z,1006.29
2022-08-08T08:28:04.549Z,1006.24
2022-08-08T08:29:04.531Z,1006.20
2022-08-08T08:30:04.563Z,1006.19
2022-08-08T08:31:04.597Z,1006.21
2022-08-08T08:32:05.772Z,1006.23
2022-08-08T08:33:04.504Z,1006.22
2022-08-08T08:34:04.491Z,1006.25
2022-08-08T08:35:04.472Z,1006.23
2022-08-08T08:36:17.610Z,1006.28
2022-08-08T08:37:08.035Z,1006.23
2022-08-08T08:38:17.230Z,1006.26
2022-08-08T08:39:07.522Z,1006.22
2022-08-08T08:40:05.426Z,1006.28
2022-08-08T08:41:06.114Z,1006.18
2022-08-08T08:42:05.404Z,1006.22
2022-08-08T08:43:06.860Z,1006.24
2022-08-08T08:44:13.979Z,1006.27
2022-08-08T08:45:16.483Z,1006.25
2022-08-08T08:46:05.777Z,1006.29
2022-08-08T08:47:04.365Z,1006.29
2022-08-08T08:48:04.336Z,1006.14
2022-08-08T08:49:04.327Z,1006.17
2022-08-08T08:50:04.327Z,1006.19
2022-08-08T08:51:04.307Z,1006.21
2022-08-08T08:52:04.326Z,1006.21
2022-08-08T08:53:04.807Z,1006.19
2022-08-08T08:54:05.277Z,1006.15
2022-08-08T08:55:04.259Z,1006.24
2022-08-08T08:56:04.259Z,1006.25
2022-08-08T08:57:04.239Z,1006.26
2022-08-08T08:58:05.258Z,1006.27
2022-08-08T08:59:04.230Z,1006.21
2022-08-08T09:00:05.619Z,1006.25
2022-08-08T09:01:09.590Z,1006.29
2022-08-08T09:02:05.261Z,1006.25
2022-08-08T09:03:04.180Z,1006.24
2022-08-08T09:04:04.190Z,1006.20
2022-08-08T09:05:04.170Z,1006.26
2022-08-08T09:06:04.162Z,1006.22
2022-08-08T09:07:08.795Z,1006.24
2022-08-08T09:08:12.659Z,1006.19
2022-08-08T09:09:05.154Z,1006.22
2022-08-08T09:10:04.714Z,1006.19
2022-08-08T09:11:04.103Z,1006.25
2022-08-08T09:12:07.537Z,1006.17
2022-08-08T09:13:04.087Z,1006.20
2022-08-08T09:14:04.082Z,1006.17
2022-08-08T09:15:06.137Z,1006.23
2022-08-08T09:16:04.184Z,1006.14
2022-08-08T09:17:11.653Z,1006.24
2022-08-08T09:18:05.685Z,1006.19
2022-08-08T09:19:04.024Z,1006.17
2022-08-08T09:21:57.975Z,1006.11
2022-08-08T09:21:58.688Z,1006.17
2022-08-08T09:22:06.471Z,1006.19
2022-08-08T09:23:03.987Z,1006.21
2022-08-08T09:24:04.148Z,1006.23
2022-08-08T09:25:04.024Z,1006.28
2022-08-08T09:26:03.987Z,1006.17
2022-08-08T09:27:03.945Z,1006.24
2022-08-08T09:28:04.099Z,1006.17
2022-08-08T09:29:08.235Z,1006.15
2022-08-08T09:30:04.918Z,1006.18
2022-08-08T09:31:03.898Z,1006.10
2022-08-08T09:32:04.918Z,1006.16
2022-08-08T09:33:55.644Z,1006.22
2022-08-08T09:34:30.616Z,1006.18
2022-08-08T09:35:08.289Z,1006.15
2022-08-08T09:36:03.859Z,1006.10
2022-08-08T09:37:37.427Z,1006.13
2022-08-08T09:38:05.861Z,1006.06
2022-08-08T09:39:03.870Z,1006.10
2022-08-08T09:40:08.689Z,1006.07
2022-08-08T09:41:04.812Z,1006.09
2022-08-08T09:42:21.331Z,1006.09
2022-08-08T09:43:16.390Z,1006.08
2022-08-08T09:44:13.010Z,1006.05
2022-08-08T09:45:08.096Z,1006.12
2022-08-08T09:46:06.591Z,1006.04
2022-08-08T09:47:25.398Z,1005.98
2022-08-08T09:48:16.039Z,1005.96
2022-08-08T09:49:40.972Z,1005.99
2022-08-08T09:50:07.526Z,1005.78
2022-08-08T09:51:05.447Z,1005.53
2022-08-08T09:52:06.846Z,1005.49
2022-08-08T09:53:22.264Z,1005.43
2022-08-08T09:54:08.447Z,1005.41
2022-08-08T09:55:05.095Z,1005.30
2022-08-08T09:56:06.483Z,1005.43
2022-08-08T09:57:03.637Z,1005.33
2022-08-08T09:58:03.633Z,1005.31
2022-08-08T09:59:20.025Z,1005.33
2022-08-08T10:00:34.271Z,1005.41
2022-08-08T10:01:58.166Z,1005.36
2022-08-08T10:02:56.275Z,1005.38
2022-08-08T10:03:57.434Z,1005.32
2022-08-08T10:04:56.288Z,1005.32
2022-08-08T10:05:56.318Z,1005.31
2022-08-08T10:06:56.239Z,1005.28
2022-08-08T10:07:59.910Z,1005.29
2022-08-08T10:08:56.216Z,1005.27
2022-08-08T10:09:59.578Z,1005.25
2022-08-08T10:10:57.217Z,1005.27
2022-08-08T10:12:27.509Z,1005.36
2022-08-08T10:12:57.595Z,1005.38
2022-08-08T10:13:57.634Z,1005.37
2022-08-08T10:14:56.148Z,1005.29
2022-08-08T10:15:59.017Z,1005.34
2022-08-08T10:16:58.508Z,1005.27
2022-08-08T10:18:11.818Z,1005.29
2022-08-08T10:18:57.107Z,1005.24
2022-08-08T10:19:57.640Z,1005.28
2022-08-08T10:21:00.433Z,1005.26
2022-08-08T10:21:57.080Z,1005.21
2022-08-08T10:22:56.111Z,1005.32
2022-08-08T10:23:59.266Z,1005.24
2022-08-08T10:24:56.041Z,1005.28
2022-08-08T10:25:57.305Z,1005.27
2022-08-08T10:26:59.699Z,1005.20
2022-08-08T10:27:57.793Z,1005.19
2022-08-08T10:28:56.021Z,1005.12
2022-08-08T10:29:58.829Z,1005.12
2022-08-08T10:31:01.051Z,1005.16
2022-08-08T10:31:56.960Z,1005.12
2022-08-08T10:32:55.953Z,1005.10
2022-08-08T10:34:19.025Z,1005.08
2022-08-08T10:35:01.089Z,1005.05
2022-08-08T10:36:08.102Z,1005.06
2022-08-08T10:36:56.916Z,1005.19
2022-08-08T10:37:55.903Z,1005.09
2022-08-08T10:38:55.893Z,1005.13
2022-08-08T10:39:55.919Z,1005.09
2022-08-08T10:40:55.885Z,1005.12
2022-08-08T10:42:13.311Z,1005.11
2022-08-08T10:42:56.856Z,1005.08
2022-08-08T10:43:55.833Z,1005.25
2022-08-08T10:44:55.835Z,1005.11
2022-08-08T10:45:58.847Z,1005.05
2022-08-08T10:46:55.805Z,1005.12
2022-08-08T10:47:55.877Z,1005.03
2022-08-08T10:48:59.164Z,1005.12
2022-08-08T10:50:01.551Z,1005.05
2022-08-08T10:50:56.787Z,1005.10
2022-08-08T10:51:55.766Z,1005.07
2022-08-08T10:52:55.739Z,1005.06
2022-08-08T10:53:58.365Z,1005.04
2022-08-08T10:54:55.719Z,1005.06
2022-08-08T10:55:55.710Z,1005.03
2022-08-08T10:56:55.719Z,1005.04
2022-08-08T10:57:55.688Z,1005.00
2022-08-08T10:58:55.679Z,1005.02
2022-08-08T10:59:55.663Z,1005.00
2022-08-08T11:01:05.016Z,1004.99
2022-08-08T11:01:56.759Z,1005.07
2022-08-08T11:02:55.649Z,1005.01
2022-08-08T11:04:02.171Z,1005.07
2022-08-08T11:04:56.613Z,1005.01
2022-08-08T11:06:00.375Z,1005.03
2022-08-08T11:06:56.591Z,1005.07
2022-08-08T11:08:38.036Z,1005.02
2022-08-08T11:08:56.569Z,1005.03
2022-08-08T11:09:55.551Z,1005.01
2022-08-08T11:10:55.545Z,1005.01
2022-08-08T11:12:06.526Z,1004.96
2022-08-08T11:13:12.434Z,1004.96
2022-08-08T11:14:00.083Z,1004.92
2022-08-08T11:14:55.505Z,1004.94
2022-08-08T11:16:00.641Z,1004.94
2022-08-08T11:16:56.503Z,1004.96
2022-08-08T11:17:58.492Z,1004.89
2022-08-08T11:18:56.475Z,1004.91
2022-08-08T11:19:55.444Z,1004.93
2022-08-08T11:20:55.443Z,1004.90
2022-08-08T11:21:56.392Z,1004.87
2022-08-08T11:22:55.415Z,1004.84
2022-08-08T11:24:02.212Z,1004.85
2022-08-08T11:24:56.394Z,1004.84
2022-08-08T11:25:57.385Z,1004.89
2022-08-08T11:26:57.247Z,1004.84
2022-08-08T11:27:55.357Z,1004.84
2022-08-08T11:28:55.348Z,1004.93
2022-08-08T11:30:19.388Z,1004.86
2022-08-08T11:30:56.345Z,1004.80
2022-08-08T11:31:55.317Z,1004.81
2022-08-08T11:32:55.309Z,1004.74
2022-08-08T11:34:01.944Z,1004.78
2022-08-08T11:35:10.474Z,1004.78
2022-08-08T11:35:56.272Z,1004.72
2022-08-08T11:36:58.796Z,1004.76
2022-08-08T11:38:39.021Z,1004.72
2022-08-08T11:38:56.273Z,1004.72
2022-08-08T11:39:57.368Z,1004.73
2022-08-08T11:40:55.238Z,1004.70
2022-08-08T11:41:55.209Z,1004.71
2022-08-08T11:42:55.201Z,1004.75
2022-08-08T11:43:58.083Z,1004.75
2022-08-08T11:44:55.171Z,1004.77
2022-08-08T11:46:09.544Z,1004.77
2022-08-08T11:46:56.159Z,1004.70
2022-08-08T11:48:04.449Z,1004.72
2022-08-08T11:48:56.135Z,1004.76
2022-08-08T11:49:55.132Z,1004.78
2022-08-08T11:50:55.353Z,1004.71
2022-08-08T11:51:55.131Z,1004.69
2022-08-08T11:52:55.092Z,1004.69
2022-08-08T11:53:59.095Z,1004.72
2022-08-08T11:54:56.076Z,1004.73
2022-08-08T11:55:55.442Z,1004.74
2022-08-08T11:56:56.559Z,1004.68
2022-08-08T11:57:59.848Z,1004.65
2022-08-08T11:58:56.023Z,1004.69
2022-08-08T11:59:58.512Z,1004.74
2022-08-08T12:00:56.003Z,1004.76
2022-08-08T12:02:09.724Z,1004.66
2022-08-08T12:02:56.104Z,1004.62
2022-08-08T12:03:59.286Z,1004.56
2022-08-08T12:04:54.966Z,1004.66